首页
METAR-TAF:

METAR-TAF

机场 :

Paulatuk, 西北特區, 加拿大

纬度: 69-21N, 经度: 124-02W, 海拔: 6米

当前天气观测

该预报发布于11小时和31分钟前的23:00 UTC
风速23节,风向,有时为31节阵风
温度 -13°C
湿度 66%
气压 1017 hPa
能見度: 24.1公里
少量云层高于12000英尺
散云层高于23000英尺
低吹雪

METAR: CYPC 042300Z 18023G31KT 15SM DRSN FEW120 SCT230 M13/M18 A3004 RMK AC1CI2 LAST STFD OBS/NEXT 051300 UTC SLP175

时间: 04:31 (10:31 UTC)

预报

该预报发布于15小时和53分钟前的18:38 UTC
预报有效从04日的 19点(UTC)到 04日的 23点(UTC)
风速15节,风向
能見度: 10公里
散云层高于3000英尺
多云层高于12000英尺
多云层高于22000英尺

TAF: CYPC 041838Z 0419/0423 18015KT P6SM SCT030 BKN120 BKN220 RMK NXT FCST WILL BE ISSUED AT 051445Z

超过4000个机场的气象观测和天气预报(METAR&TAF报告)。

可查询的气象台以黄色和红色小点在地图上表示。

将鼠标移到小点上方,可查看气象台名称。

然后点击查看天气观测和预报。

如需切换地图:点击带黑十字的绿色按钮放大地图;点击带横线的绿色按钮缩小地图;或者点击绿色箭头查看邻近地区的地图。


METAR-TAF: